Time;durP1;ratioP1;P1;durP2;ratioP2;P2;SDS_P1;SDS_P2;PMS_P1;PMS_P2;Temp;Humidity;BMP_temperature;BMP_pressure;BME280_temperature;BME280_humidity;BME280_pressure;Samples;Min_cycle;Max_cycle;Signal;HPM_P1;HPM_P2
2022/06/20 00:02:10;;;;;;;17.55;14.43;;;21.30;99.90;;;;;;5052391;28;20588;-74
2022/06/20 00:04:38;;;;;;;18.70;13.80;;;21.30;99.90;;;;;;5052479;28;20556;-75
2022/06/20 00:07:05;;;;;;;17.10;13.13;;;21.10;99.90;;;;;;5052584;28;20201;-75
2022/06/20 00:09:32;;;;;;;17.92;13.80;;;21.20;99.90;;;;;;5052348;28;20912;-75
2022/06/20 00:11:59;;;;;;;16.38;12.98;;;20.90;99.90;;;;;;5052366;28;20707;-75
2022/06/20 00:14:26;;;;;;;16.60;12.57;;;20.90;99.90;;;;;;5052211;28;20202;-75
2022/06/20 00:16:52;;;;;;;17.88;14.15;;;20.90;99.90;;;;;;5052467;28;20295;-74
2022/06/20 00:19:19;;;;;;;17.13;13.80;;;20.90;99.90;;;;;;5052665;28;20202;-75
2022/06/20 00:21:47;;;;;;;17.98;14.02;;;20.90;99.90;;;;;;5052405;28;20200;-75
2022/06/20 00:24:14;;;;;;;18.02;14.38;;;20.90;99.90;;;;;;5052221;28;20629;-74
2022/06/20 00:26:40;;;;;;;18.48;14.05;;;20.70;99.90;;;;;;5052236;28;20198;-75
2022/06/20 00:29:11;;;;;;;21.30;14.93;;;20.80;99.90;;;;;;5052363;28;20198;-75
2022/06/20 00:31:37;;;;;;;16.58;14.73;;;20.70;99.90;;;;;;5052336;28;20197;-75
2022/06/20 00:34:04;;;;;;;18.63;14.52;;;20.60;99.90;;;;;;5052284;28;20193;-75
2022/06/20 00:36:31;;;;;;;18.88;14.57;;;20.40;99.90;;;;;;5052103;28;20526;-74
2022/06/20 00:38:59;;;;;;;17.13;14.25;;;20.60;99.90;;;;;;5052132;28;20197;-74
2022/06/20 00:41:29;;;;;;;17.35;15.07;;;20.70;99.90;;;;;;5052065;28;20202;-75
2022/06/20 00:43:56;;;;;;;20.90;13.95;;;20.60;99.90;;;;;;5052244;28;20247;-75
2022/06/20 00:46:30;;;;;;;18.98;15.40;;;20.50;99.90;;;;;;5052333;28;20251;-74
2022/06/20 00:49:02;;;;;;;23.77;14.77;;;20.40;99.90;;;;;;5052537;28;20194;-75
2022/06/20 00:51:37;;;;;;;20.17;14.55;;;20.60;99.90;;;;;;5057462;28;20225;-75
2022/06/20 00:54:12;;;;;;;18.17;15.25;;;20.60;99.90;;;;;;5058360;28;20231;-74
2022/06/20 00:56:50;;;;;;;20.63;14.50;;;20.70;99.90;;;;;;5058944;28;20259;-74
2022/06/20 00:59:22;;;;;;;21.48;14.75;;;20.50;99.90;;;;;;5058471;28;20672;-74
2022/06/20 01:01:49;;;;;;;22.63;14.68;;;20.50;99.90;;;;;;5055537;28;20653;-75
2022/06/20 01:04:22;;;;;;;21.35;15.45;;;20.50;99.90;;;;;;5055433;28;20255;-75
2022/06/20 01:06:54;;;;;;;20.35;15.50;;;20.50;99.90;;;;;;5055676;28;20232;-75
2022/06/20 01:09:26;;;;;;;19.70;15.32;;;20.40;99.90;;;;;;5055435;28;20255;-75
2022/06/20 01:11:55;;;;;;;16.48;14.75;;;20.20;99.90;;;;;;5055581;28;20209;-75
2022/06/20 01:14:26;;;;;;;21.27;15.90;;;20.10;99.90;;;;;;5055288;28;20194;-75
2022/06/20 01:16:56;;;;;;;18.05;16.23;;;19.90;99.90;;;;;;5055097;28;20257;-75
2022/06/20 01:19:36;;;;;;;19.98;15.40;;;19.70;99.90;;;;;;5055166;28;20660;-75
2022/06/20 01:22:18;;;;;;;21.75;16.30;;;19.60;99.90;;;;;;5055340;28;20271;-75
2022/06/20 01:24:55;;;;;;;20.60;15.93;;;19.70;99.90;;;;;;5055091;28;20198;-75
2022/06/20 01:27:34;;;;;;;19.30;14.93;;;19.80;99.90;;;;;;5055013;28;20599;-75
2022/06/20 01:30:02;;;;;;;19.42;15.80;;;19.90;99.90;;;;;;5055159;28;20226;-75
2022/06/20 01:32:30;;;;;;;19.40;14.40;;;20.10;99.90;;;;;;5055119;28;20205;-75
2022/06/20 01:34:58;;;;;;;19.27;14.50;;;20.20;99.90;;;;;;5054972;28;20198;-75
2022/06/20 01:37:26;;;;;;;19.52;15.65;;;20.30;99.90;;;;;;5055206;28;20193;-75
2022/06/20 01:39:56;;;;;;;18.13;14.77;;;20.30;99.90;;;;;;5054904;28;20652;-75
2022/06/20 01:42:24;;;;;;;19.70;14.27;;;20.30;99.90;;;;;;5055226;28;20204;-75
2022/06/20 01:44:54;;;;;;;19.83;14.90;;;20.40;99.90;;;;;;5054836;28;20198;-75
2022/06/20 01:47:21;;;;;;;18.85;14.48;;;20.50;99.90;;;;;;5054750;28;20198;-75
2022/06/20 01:49:52;;;;;;;17.42;13.75;;;20.50;99.90;;;;;;5054676;28;20247;-75
2022/06/20 01:52:25;;;;;;;16.55;14.45;;;20.60;99.90;;;;;;5054718;28;20256;-75
2022/06/20 01:54:59;;;;;;;15.68;13.88;;;20.60;99.90;;;;;;5054941;28;20242;-75
2022/06/20 01:57:29;;;;;;;15.77;13.95;;;20.50;99.90;;;;;;5054679;28;20251;-75
2022/06/20 01:59:59;;;;;;;18.42;13.52;;;20.60;99.90;;;;;;5054443;28;20683;-75
2022/06/20 02:02:28;;;;;;;19.88;13.88;;;20.60;99.90;;;;;;5054369;28;20272;-75
2022/06/20 02:04:55;;;;;;;20.33;13.65;;;20.70;99.90;;;;;;5053140;28;20202;-75
2022/06/20 02:07:21;;;;;;;21.60;14.20;;;20.60;99.90;;;;;;5054409;28;20252;-75
2022/06/20 02:09:48;;;;;;;17.13;14.45;;;20.60;99.90;;;;;;5054438;28;20201;-75
2022/06/20 02:12:17;;;;;;;18.40;15.18;;;20.50;99.90;;;;;;5054093;28;20197;-74
2022/06/20 02:14:49;;;;;;;20.08;14.65;;;20.40;99.90;;;;;;5054135;28;20275;-74
2022/06/20 02:17:21;;;;;;;18.52;14.88;;;20.40;99.90;;;;;;5053859;28;20324;-74
2022/06/20 02:19:52;;;;;;;19.10;14.70;;;20.40;99.90;;;;;;5053975;28;20564;-74
2022/06/20 02:22:21;;;;;;;19.55;15.18;;;20.30;99.90;;;;;;5054154;28;20217;-74
2022/06/20 02:24:52;;;;;;;16.75;13.40;;;20.30;99.90;;;;;;5054050;28;20208;-74
2022/06/20 02:27:24;;;;;;;17.52;14.05;;;20.30;99.90;;;;;;5053962;28;20205;-74
2022/06/20 02:29:52;;;;;;;18.80;14.25;;;20.30;99.90;;;;;;5053716;28;20243;-74
2022/06/20 02:32:22;;;;;;;18.90;14.77;;;20.30;99.90;;;;;;5053906;28;20239;-74
2022/06/20 02:34:49;;;;;;;18.52;14.45;;;20.40;99.90;;;;;;5054004;28;20259;-74
2022/06/20 02:37:23;;;;;;;20.08;14.90;;;20.30;99.90;;;;;;5053802;28;20197;-74
2022/06/20 02:39:52;;;;;;;18.08;14.10;;;20.30;99.90;;;;;;5053654;28;20197;-74
2022/06/20 02:42:22;;;;;;;19.58;13.40;;;20.30;99.90;;;;;;5053506;28;20676;-75
2022/06/20 02:44:49;;;;;;;19.40;15.35;;;20.40;99.90;;;;;;5053668;28;20206;-75
2022/06/20 02:47:20;;;;;;;15.90;14.30;;;20.40;99.90;;;;;;5053541;28;20232;-75
2022/06/20 02:49:47;;;;;;;21.73;15.05;;;20.30;99.90;;;;;;5053384;28;20648;-75
2022/06/20 02:52:18;;;;;;;16.67;14.55;;;20.30;99.90;;;;;;5053587;28;20861;-75
2022/06/20 02:54:46;;;;;;;19.08;14.93;;;20.30;99.90;;;;;;5053259;28;20197;-75
2022/06/20 02:57:18;;;;;;;18.52;14.15;;;20.30;99.90;;;;;;5053570;28;20248;-75
2022/06/20 02:59:49;;;;;;;16.48;14.80;;;20.20;99.90;;;;;;5053387;28;20248;-75
2022/06/20 03:02:22;;;;;;;20.88;15.48;;;20.00;99.90;;;;;;5053325;28;20264;-75
2022/06/20 03:04:49;;;;;;;21.40;16.25;;;20.10;99.90;;;;;;5053266;28;20264;-75
2022/06/20 03:07:20;;;;;;;20.75;16.38;;;20.00;99.90;;;;;;5053071;28;20202;-75
2022/06/20 03:09:51;;;;;;;19.35;15.15;;;19.90;99.90;;;;;;5053420;28;20197;-75
2022/06/20 03:12:18;;;;;;;19.13;15.82;;;19.90;99.90;;;;;;5053147;28;20225;-75
2022/06/20 03:14:48;;;;;;;18.10;15.85;;;19.80;99.90;;;;;;5053176;28;20202;-75
2022/06/20 03:17:16;;;;;;;19.50;15.93;;;19.80;99.90;;;;;;5052319;28;20765;-75
2022/06/20 03:19:48;;;;;;;20.10;15.15;;;19.80;99.90;;;;;;5052904;28;20259;-75
2022/06/20 03:22:18;;;;;;;17.15;15.38;;;19.70;99.90;;;;;;5053071;28;20205;-75
2022/06/20 03:24:47;;;;;;;19.63;15.55;;;19.60;99.90;;;;;;5052865;28;20656;-75
2022/06/20 03:27:17;;;;;;;20.95;14.73;;;19.50;99.90;;;;;;5052838;28;20742;-75
2022/06/20 03:29:45;;;;;;;19.55;15.30;;;19.60;99.90;;;;;;5052872;28;20205;-76
2022/06/20 03:32:12;;;;;;;18.90;15.13;;;19.50;99.90;;;;;;5052654;28;20221;-75
2022/06/20 03:34:39;;;;;;;21.38;15.52;;;19.50;99.90;;;;;;5052886;28;20209;-75
2022/06/20 03:37:07;;;;;;;18.88;15.10;;;19.60;99.90;;;;;;5052854;28;20608;-76
2022/06/20 03:39:35;;;;;;;20.42;14.45;;;19.70;99.90;;;;;;5052937;28;20194;-76
2022/06/20 03:42:02;;;;;;;18.58;14.98;;;19.70;99.90;;;;;;5052757;28;20201;-75
2022/06/20 03:44:33;;;;;;;19.58;16.02;;;19.70;99.90;;;;;;5052634;28;20251;-75
2022/06/20 03:47:05;;;;;;;23.75;16.13;;;19.70;99.90;;;;;;5052699;28;20656;-75
2022/06/20 03:49:37;;;;;;;18.98;15.32;;;19.80;99.90;;;;;;5052634;28;20198;-75
2022/06/20 03:52:12;;;;;;;18.48;15.27;;;19.90;99.90;;;;;;5053118;28;20221;-75
2022/06/20 03:54:44;;;;;;;16.90;14.80;;;19.90;99.90;;;;;;5056887;28;20201;-75
2022/06/20 03:57:16;;;;;;;16.58;14.25;;;19.90;99.90;;;;;;5056652;28;20197;-74
2022/06/20 03:59:48;;;;;;;21.63;13.60;;;20.00;99.90;;;;;;5057685;28;20205;-75
2022/06/20 04:02:19;;;;;;;15.82;14.20;;;20.10;99.90;;;;;;5060291;28;20248;-75
2022/06/20 04:04:51;;;;;;;18.77;14.18;;;20.20;99.90;;;;;;5061109;28;20209;-75
2022/06/20 04:07:24;;;;;;;23.80;14.55;;;20.40;99.90;;;;;;5053900;28;20236;-72
2022/06/20 04:12:52;;;;;;;23.48;15.40;;;20.60;99.90;;;;;;5052334;28;20671;-72
2022/06/20 04:15:23;;;;;;;21.08;14.75;;;20.70;99.90;;;;;;5052367;28;20205;-72
2022/06/20 04:20:44;;;;;;;18.20;14.10;;;20.90;99.90;;;;;;5052307;28;20201;-72
2022/06/20 04:23:18;;;;;;;16.40;12.55;;;21.00;99.90;;;;;;5052395;28;20210;-72
2022/06/20 04:25:50;;;;;;;22.40;11.95;;;21.20;99.90;;;;;;5052382;28;20243;-72
2022/06/20 04:28:24;;;;;;;16.70;12.30;;;21.50;99.90;;;;;;5053010;28;20656;-72
2022/06/20 04:30:58;;;;;;;17.45;11.73;;;21.40;99.90;;;;;;5056112;28;20710;-73
2022/06/20 04:33:31;;;;;;;22.00;11.63;;;21.10;99.90;;;;;;5056211;28;20209;-72
2022/06/20 04:36:19;;;;;;;21.10;12.65;;;20.40;99.90;;;;;;5056179;28;20202;-71
2022/06/20 04:38:54;;;;;;;19.02;12.57;;;19.90;99.90;;;;;;5055938;28;20198;-71
2022/06/20 04:41:36;;;;;;;18.02;12.57;;;19.70;99.90;;;;;;5056226;28;20204;-70
2022/06/20 04:44:10;;;;;;;16.65;12.90;;;19.50;99.90;;;;;;5056109;28;20635;-72
2022/06/20 04:46:43;;;;;;;15.27;11.13;;;19.50;99.90;;;;;;5055765;28;20201;-72
2022/06/20 04:49:13;;;;;;;18.25;12.00;;;19.60;99.90;;;;;;5055643;28;20710;-73
2022/06/20 04:51:40;;;;;;;20.27;10.82;;;19.60;99.90;;;;;;5055809;28;20286;-73
2022/06/20 04:54:14;;;;;;;16.10;10.70;;;19.60;99.90;;;;;;5055727;28;20198;-72
2022/06/20 04:56:42;;;;;;;15.35;10.48;;;19.70;99.90;;;;;;5055681;28;20232;-73
2022/06/20 04:59:13;;;;;;;13.73;10.00;;;19.80;99.90;;;;;;5055516;28;20200;-72
2022/06/20 05:01:40;;;;;;;13.57;10.07;;;19.80;99.90;;;;;;5055427;28;20259;-72
2022/06/20 05:04:13;;;;;;;15.30;9.40;;;19.80;99.90;;;;;;5055275;28;20251;-72
2022/06/20 05:06:42;;;;;;;17.05;9.68;;;20.00;99.90;;;;;;5055602;28;20210;-73
2022/06/20 05:09:16;;;;;;;15.05;9.32;;;20.00;99.90;;;;;;5055351;28;20194;-72
2022/06/20 05:11:48;;;;;;;10.40;9.13;;;20.10;99.90;;;;;;5055117;28;20275;-73
2022/06/20 05:14:21;;;;;;;15.05;9.90;;;20.10;99.90;;;;;;5055145;28;20197;-72
2022/06/20 05:16:55;;;;;;;14.95;9.90;;;20.20;99.90;;;;;;5055064;28;20238;-73
2022/06/20 05:19:27;;;;;;;15.88;8.80;;;20.30;99.90;;;;;;5055167;28;20194;-73
2022/06/20 05:21:58;;;;;;;15.20;9.35;;;20.30;99.90;;;;;;5055064;28;20726;-72
2022/06/20 05:24:31;;;;;;;11.60;8.38;;;20.30;99.90;;;;;;5055115;28;20198;-73
2022/06/20 05:27:01;;;;;;;16.05;8.75;;;20.40;99.90;;;;;;5054961;28;20201;-72
2022/06/20 05:29:32;;;;;;;15.35;9.20;;;20.40;99.90;;;;;;5055074;28;20209;-72
2022/06/20 05:32:04;;;;;;;13.88;8.80;;;20.50;99.90;;;;;;5055017;28;20303;-73
2022/06/20 05:34:37;;;;;;;16.05;9.38;;;20.50;99.90;;;;;;5055089;28;20204;-72
2022/06/20 05:37:10;;;;;;;10.00;8.43;;;20.60;99.90;;;;;;5054953;28;20193;-72
2022/06/20 05:39:44;;;;;;;12.68;8.30;;;20.70;99.90;;;;;;5054359;28;20599;-72
2022/06/20 05:42:15;;;;;;;13.48;8.82;;;20.70;99.90;;;;;;5054728;28;20263;-72
2022/06/20 05:44:42;;;;;;;12.73;9.30;;;20.70;99.90;;;;;;5054523;28;20718;-72
2022/06/20 05:47:17;;;;;;;17.65;9.27;;;20.50;99.90;;;;;;5054559;28;20194;-73
2022/06/20 05:49:48;;;;;;;14.43;9.55;;;20.60;99.90;;;;;;5054498;28;20648;-72
2022/06/20 05:52:20;;;;;;;14.70;9.15;;;20.50;99.90;;;;;;5054621;28;20270;-73
2022/06/20 05:54:55;;;;;;;15.13;8.77;;;20.40;99.90;;;;;;5054621;28;20206;-75
2022/06/20 05:57:25;;;;;;;11.98;8.93;;;20.00;99.90;;;;;;5054444;28;20502;-75
2022/06/20 05:59:55;;;;;;;14.90;9.70;;;19.80;99.90;;;;;;5054393;28;20714;-75
2022/06/20 06:02:25;;;;;;;12.02;9.10;;;19.60;99.90;;;;;;5054396;28;20202;-73
2022/06/20 06:05:01;;;;;;;14.05;9.45;;;19.80;99.90;;;;;;5054531;28;20198;-72
2022/06/20 06:07:33;;;;;;;13.07;9.10;;;19.80;99.90;;;;;;5054313;28;20591;-71
2022/06/20 06:10:07;;;;;;;14.30;9.52;;;19.80;99.90;;;;;;5054096;28;20201;-83
2022/06/20 06:12:38;;;;;;;14.50;9.30;;;19.30;99.90;;;;;;5054198;28;20218;-82
2022/06/20 06:15:11;;;;;;;13.77;10.20;;;19.10;99.90;;;;;;5054387;28;20205;-82
2022/06/20 06:17:42;;;;;;;16.20;10.38;;;18.90;99.90;;;;;;5054344;28;20226;-81
2022/06/20 06:20:13;;;;;;;18.85;11.18;;;18.70;99.90;;;;;;5055435;28;20247;-82
2022/06/20 06:22:43;;;;;;;16.23;11.32;;;18.30;99.90;;;;;;5056159;28;20653;-82
2022/06/20 06:25:20;;;;;;;18.50;11.65;;;18.20;99.90;;;;;;5055076;28;20259;-81
2022/06/20 06:27:49;;;;;;;21.25;12.65;;;18.20;99.90;;;;;;5055305;28;20214;-81
2022/06/20 06:30:20;;;;;;;25.67;15.30;;;18.00;99.90;;;;;;5054969;28;20288;-75
2022/06/20 06:32:52;;;;;;;23.13;15.40;;;17.80;99.90;;;;;;5053727;28;20225;-74
2022/06/20 06:35:23;;;;;;;22.33;15.45;;;17.70;99.90;;;;;;5053596;28;20194;-75
2022/06/20 06:37:56;;;;;;;24.33;15.35;;;17.80;99.90;;;;;;5053524;28;20202;-75
2022/06/20 06:40:31;;;;;;;22.48;16.55;;;18.00;99.90;;;;;;5053672;28;20206;-75
2022/06/20 06:42:59;;;;;;;22.45;16.30;;;18.40;99.90;;;;;;5053490;28;20611;-75
2022/06/20 06:45:30;;;;;;;26.90;15.45;;;18.50;99.90;;;;;;5053513;28;20304;-75
2022/06/20 06:48:02;;;;;;;19.38;13.68;;;18.30;99.90;;;;;;5053474;28;20251;-75
2022/06/20 06:50:34;;;;;;;17.15;13.27;;;18.40;99.90;;;;;;5053383;28;20202;-74
2022/06/20 06:53:06;;;;;;;17.70;13.30;;;18.50;99.90;;;;;;5052907;28;20272;-74
2022/06/20 06:55:37;;;;;;;16.27;12.80;;;18.50;99.90;;;;;;5053266;28;20209;-74
2022/06/20 06:58:12;;;;;;;17.98;12.30;;;18.60;99.90;;;;;;5053913;28;20251;-74
2022/06/20 07:00:44;;;;;;;20.67;12.18;;;18.70;99.90;;;;;;5057498;28;20201;-74
2022/06/20 07:03:16;;;;;;;15.80;12.02;;;19.00;99.90;;;;;;5058864;28;20260;-74
2022/06/20 07:05:50;;;;;;;16.42;11.40;;;19.00;99.90;;;;;;5058598;28;20722;-74
2022/06/20 07:08:22;;;;;;;15.90;11.80;;;18.90;99.90;;;;;;5058508;28;20202;-74
2022/06/20 07:10:55;;;;;;;16.65;12.18;;;18.80;99.90;;;;;;5060455;28;20201;-75
2022/06/20 07:13:32;;;;;;;19.20;13.75;;;19.10;99.90;;;;;;5058020;28;20233;-73
2022/06/20 07:16:02;;;;;;;17.90;11.35;;;19.30;99.90;;;;;;5053110;28;20201;-73
2022/06/20 07:18:43;;;;;;;18.83;12.48;;;19.30;99.90;;;;;;5053267;28;20233;-73
2022/06/20 07:21:12;;;;;;;20.63;11.60;;;19.50;99.90;;;;;;5052910;28;20201;-73
2022/06/20 07:23:41;;;;;;;17.52;11.75;;;19.30;99.90;;;;;;5053141;28;20615;-73
2022/06/20 07:26:12;;;;;;;17.50;11.85;;;19.10;99.90;;;;;;5053108;28;20197;-73
2022/06/20 07:28:43;;;;;;;23.70;11.60;;;19.20;99.90;;;;;;5052867;28;20202;-73
2022/06/20 07:31:15;;;;;;;17.95;10.98;;;19.40;99.90;;;;;;5052792;28;20202;-73
2022/06/20 07:33:47;;;;;;;17.75;11.85;;;19.60;99.90;;;;;;5052744;28;20259;-73
2022/06/20 07:36:17;;;;;;;18.48;10.82;;;19.90;99.90;;;;;;5052911;28;20255;-73
2022/06/20 07:38:52;;;;;;;18.30;11.40;;;20.10;99.90;;;;;;5052790;28;20247;-73
2022/06/20 07:41:23;;;;;;;19.23;11.02;;;20.20;99.90;;;;;;5052758;28;20258;-74
2022/06/20 07:43:55;;;;;;;17.10;10.98;;;20.30;99.90;;;;;;5052573;28;20201;-74
2022/06/20 07:46:26;;;;;;;13.30;10.15;;;20.20;99.90;;;;;;5052512;28;20201;-74
2022/06/20 07:48:57;;;;;;;14.50;11.38;;;20.00;99.90;;;;;;5052744;28;20607;-74
2022/06/20 07:51:29;;;;;;;18.05;11.10;;;19.70;99.90;;;;;;5052533;28;20246;-74
2022/06/20 07:53:59;;;;;;;20.88;11.57;;;19.80;99.90;;;;;;5052928;28;20255;-74
2022/06/20 07:56:34;;;;;;;16.30;11.18;;;19.80;99.90;;;;;;5052529;28;20198;-75
2022/06/20 07:59:06;;;;;;;15.15;11.82;;;19.90;99.90;;;;;;5052334;28;20268;-74
2022/06/20 08:01:42;;;;;;;17.52;11.10;;;20.10;99.90;;;;;;5052636;28;20193;-75
2022/06/20 08:04:10;;;;;;;20.15;11.40;;;20.30;99.90;;;;;;5056145;28;20675;-76
2022/06/20 08:06:43;;;;;;;15.60;11.32;;;20.50;99.90;;;;;;5056558;28;20664;-76
2022/06/20 08:09:16;;;;;;;15.95;10.68;;;20.80;99.90;;;;;;5056633;28;20649;-76
2022/06/20 08:11:48;;;;;;;21.00;11.02;;;21.10;99.90;;;;;;5056687;28;20193;-75
2022/06/20 08:14:22;;;;;;;15.15;11.25;;;21.40;99.90;;;;;;5056612;28;20197;-76
2022/06/20 08:16:53;;;;;;;15.13;11.05;;;21.60;99.90;;;;;;5056296;28;20197;-76
2022/06/20 08:19:21;;;;;;;16.73;11.63;;;21.60;99.90;;;;;;5056207;28;20200;-76
2022/06/20 08:21:57;;;;;;;18.30;11.02;;;21.80;99.90;;;;;;5056078;28;20627;-77
2022/06/20 08:24:28;;;;;;;13.45;10.98;;;21.70;99.90;;;;;;5056342;28;20247;-77
2022/06/20 08:27:01;;;;;;;18.55;11.25;;;21.80;99.90;;;;;;5056330;28;20652;-77
2022/06/20 08:29:41;;;;;;;15.25;10.48;;;22.00;99.90;;;;;;5056149;28;20256;-75
2022/06/20 08:32:16;;;;;;;17.17;10.73;;;22.10;99.90;;;;;;5055799;28;20734;-76
2022/06/20 08:34:49;;;;;;;17.00;10.85;;;22.50;99.90;;;;;;5056204;28;20205;-77
2022/06/20 08:37:21;;;;;;;14.82;11.20;;;22.70;99.90;;;;;;5056388;28;20205;-76
2022/06/20 08:39:54;;;;;;;15.35;10.82;;;22.70;99.90;;;;;;5055987;28;20216;-76
2022/06/20 08:42:49;;;;;;;15.50;9.70;;;23.10;99.90;;;;;;5055891;28;20197;-76
2022/06/20 08:45:45;;;;;;;17.40;10.07;;;23.10;99.90;;;;;;5055916;28;20578;-75
2022/06/20 08:48:59;;;;;;;16.55;9.63;;;23.30;99.90;;;;;;5055748;28;20209;-76
2022/06/20 08:55:03;;;;;;;14.98;9.68;;;23.50;99.90;;;;;;5090193;28;20595;-76
2022/06/20 08:57:40;;;;;;;15.13;10.40;;;23.50;99.90;;;;;;5090387;28;20277;-76
2022/06/20 09:00:14;;;;;;;15.52;10.35;;;23.50;99.90;;;;;;5090437;28;20203;-76
2022/06/20 09:03:06;;;;;;;20.08;9.48;;;23.70;99.90;;;;;;5090389;28;20200;-76
2022/06/20 09:05:55;;;;;;;16.73;10.10;;;24.30;99.90;;;;;;5090279;28;20201;-75
2022/06/20 09:08:39;;;;;;;14.73;9.00;;;24.50;99.90;;;;;;5090375;28;20248;-75
2022/06/20 09:11:23;;;;;;;16.08;10.05;;;25.00;99.90;;;;;;5090119;28;20711;-75
2022/06/20 09:14:08;;;;;;;18.63;10.35;;;25.10;99.90;;;;;;5089777;28;20273;-76
2022/06/20 09:16:46;;;;;;;16.40;9.32;;;24.90;99.90;;;;;;5089817;28;20703;-76
2022/06/20 09:19:32;;;;;;;17.08;9.82;;;25.00;99.90;;;;;;5089840;28;20694;-75
2022/06/20 09:22:10;;;;;;;17.75;9.80;;;25.30;99.90;;;;;;5089883;28;20197;-76
2022/06/20 09:24:52;;;;;;;13.02;9.60;;;25.70;99.90;;;;;;5089686;28;20728;-75
2022/06/20 09:27:28;;;;;;;16.92;10.27;;;26.30;99.90;;;;;;5089901;28;20196;-76
2022/06/20 09:30:06;;;;;;;17.33;9.55;;;25.80;99.90;;;;;;5089613;28;20214;-76
2022/06/20 09:33:00;;;;;;;13.35;8.98;;;26.00;99.90;;;;;;5089814;28;20214;-76
2022/06/20 09:35:45;;;;;;;15.57;8.70;;;26.00;99.90;;;;;;5089533;28;20197;-76
2022/06/20 09:38:41;;;;;;;12.77;8.20;;;26.30;99.90;;;;;;5089524;28;20280;-76
2022/06/20 09:41:17;;;;;;;17.58;9.02;;;26.10;99.90;;;;;;5089367;28;20274;-76
2022/06/20 09:44:00;;;;;;;17.70;8.57;;;25.80;99.90;;;;;;5089442;28;20200;-76
2022/06/20 09:46:33;;;;;;;15.15;8.95;;;26.10;99.90;;;;;;5089357;28;20261;-76
2022/06/20 09:49:13;;;;;;;16.95;8.57;;;26.60;99.90;;;;;;5089357;28;20200;-76
2022/06/20 09:51:48;;;;;;;10.77;8.73;;;26.60;99.90;;;;;;5089233;28;20636;-75
2022/06/20 09:54:21;;;;;;;13.73;8.80;;;26.00;99.90;;;;;;5088996;28;20240;-76
2022/06/20 09:56:52;;;;;;;14.10;8.75;;;26.40;99.90;;;;;;5089189;28;20196;-76
2022/06/20 09:59:31;;;;;;;15.02;8.45;;;26.50;99.90;;;;;;5089178;28;20200;-76
2022/06/20 10:02:05;;;;;;;12.43;8.93;;;26.70;99.90;;;;;;5089632;28;20204;-76
2022/06/20 10:04:39;;;;;;;10.25;7.97;;;26.50;99.90;;;;;;5085340;28;20287;-76
2022/06/20 10:07:15;;;;;;;15.88;8.07;;;26.60;99.90;;;;;;5075669;28;20193;-76
2022/06/20 10:09:49;;;;;;;15.77;8.45;;;27.50;99.90;;;;;;5075614;28;20598;-76
2022/06/20 10:12:22;;;;;;;13.20;7.80;;;27.80;99.90;;;;;;5075417;28;20197;-76
2022/06/20 10:14:59;;;;;;;11.25;7.55;;;27.80;99.90;;;;;;5075639;28;20322;-76
2022/06/20 10:17:34;;;;;;;13.68;8.10;;;28.90;99.90;;;;;;5075645;28;20203;-75
2022/06/20 10:20:12;;;;;;;12.05;7.90;;;28.10;99.90;;;;;;5075394;28;20201;-75
2022/06/20 10:22:48;;;;;;;14.27;8.27;;;26.80;99.90;;;;;;5075547;28;20226;-77
2022/06/20 10:25:51;;;;;;;15.23;7.72;;;26.80;99.90;;;;;;5075577;28;20203;-77
2022/06/20 10:28:24;;;;;;;15.13;9.20;;;27.40;99.90;;;;;;5075418;28;20200;-76
2022/06/20 10:30:59;;;;;;;12.40;8.20;;;27.00;99.90;;;;;;5075162;28;20568;-76
2022/06/20 10:33:33;;;;;;;14.13;8.27;;;27.10;99.90;;;;;;5075280;28;20263;-75
2022/06/20 10:36:18;;;;;;;14.02;8.27;;;26.90;99.90;;;;;;5075058;28;20254;-76
2022/06/20 10:39:03;;;;;;;11.73;8.70;;;27.30;99.90;;;;;;5074992;28;20204;-76
2022/06/20 10:41:35;;;;;;;11.65;8.35;;;28.00;99.90;;;;;;5074827;28;20201;-76
2022/06/20 10:44:15;;;;;;;16.45;8.20;;;27.70;99.90;;;;;;5075019;28;20201;-76
2022/06/20 10:46:45;;;;;;;14.55;8.52;;;26.80;99.90;;;;;;5074911;28;20266;-76
2022/06/20 10:49:55;;;;;;;16.02;9.25;;;26.80;99.90;;;;;;5074794;28;20201;-77
2022/06/20 10:52:51;;;;;;;13.68;8.80;;;26.90;99.90;;;;;;5074474;28;20250;-77
2022/06/20 10:55:30;;;;;;;12.05;7.85;;;26.80;99.90;;;;;;5074633;28;20207;-76
2022/06/20 10:58:04;;;;;;;13.15;8.43;;;27.50;99.90;;;;;;5074455;28;20717;-76
2022/06/20 11:00:36;;;;;;;16.85;8.55;;;27.50;99.90;;;;;;5074712;28;20204;-77
2022/06/20 11:03:19;;;;;;;12.93;8.07;;;28.00;99.90;;;;;;5074651;28;20267;-77
2022/06/20 11:05:54;;;;;;;13.38;8.13;;;29.20;99.90;;;;;;5074437;28;20192;-76
2022/06/20 11:08:34;;;;;;;13.30;7.53;;;28.90;99.90;;;;;;5074208;28;20671;-76
2022/06/20 11:11:12;;;;;;;11.23;7.80;;;28.40;99.90;;;;;;5074256;28;20528;-76
2022/06/20 11:13:48;;;;;;;12.68;8.02;;;27.90;99.90;;;;;;5074284;28;20225;-75
2022/06/20 11:16:26;;;;;;;12.65;6.80;;;29.00;99.90;;;;;;5073277;28;20243;-77
2022/06/20 11:19:12;;;;;;;10.02;6.75;;;29.30;98.50;;;;;;5074110;28;20246;-76
2022/06/20 11:21:45;;;;;;;10.45;6.90;;;29.00;98.90;;;;;;5074054;28;20643;-77
2022/06/20 11:24:25;;;;;;;9.70;5.80;;;28.60;98.60;;;;;;5074100;28;20289;-77
2022/06/20 11:27:06;;;;;;;7.97;6.25;;;27.90;97.80;;;;;;5074102;28;20205;-77
2022/06/20 11:29:58;;;;;;;12.93;6.30;;;27.30;99.20;;;;;;5073931;28;20205;-77
2022/06/20 11:32:38;;;;;;;9.05;5.88;;;27.40;99.90;;;;;;5072275;28;20205;-76
2022/06/20 11:35:17;;;;;;;8.15;5.32;;;27.60;99.10;;;;;;5073944;28;20224;-76
2022/06/20 11:38:00;;;;;;;11.18;5.38;;;28.10;96.50;;;;;;5074091;28;20197;-77
2022/06/20 11:40:40;;;;;;;11.80;5.55;;;28.30;96.70;;;;;;5074791;28;20595;-77
2022/06/20 11:43:25;;;;;;;7.85;4.70;;;28.10;95.40;;;;;;5074024;28;20205;-76
2022/06/20 11:46:08;;;;;;;7.07;4.60;;;27.50;96.20;;;;;;5073643;28;20247;-76
2022/06/20 11:48:47;;;;;;;11.68;4.75;;;26.80;96.20;;;;;;5073634;28;20660;-76
2022/06/20 11:51:22;;;;;;;7.25;3.92;;;26.50;97.30;;;;;;5073529;28;20201;-76
2022/06/20 11:54:00;;;;;;;8.38;4.30;;;26.50;97.30;;;;;;5073153;28;20693;-76
2022/06/20 11:56:33;;;;;;;9.75;5.07;;;26.70;96.20;;;;;;5073314;28;20288;-77
2022/06/20 11:59:18;;;;;;;11.15;5.32;;;26.60;98.00;;;;;;5073423;28;20205;-77
2022/06/20 12:01:51;;;;;;;8.10;4.47;;;25.70;99.90;;;;;;5073269;28;20710;-76
2022/06/20 12:04:24;;;;;;;8.02;4.18;;;25.80;99.90;;;;;;5073264;28;20201;-77
2022/06/20 12:06:59;;;;;;;12.23;4.43;;;26.50;99.90;;;;;;5073155;28;20236;-76
2022/06/20 12:09:33;;;;;;;6.40;3.80;;;26.40;99.70;;;;;;5073349;28;20200;-76
2022/06/20 12:12:12;;;;;;;8.02;3.88;;;25.50;99.90;;;;;;5073139;28;20205;-76
2022/06/20 12:14:49;;;;;;;8.05;3.90;;;24.70;99.90;;;;;;5073034;28;20220;-75
2022/06/20 12:17:27;;;;;;;10.02;4.00;;;24.40;99.90;;;;;;5071595;28;20242;-76
2022/06/20 12:23:21;;;;;;;6.65;3.90;;;24.60;99.90;;;;;;5072896;28;20319;-77
2022/06/20 12:25:51;;;;;;;8.38;3.72;;;25.00;99.90;;;;;;5072951;28;20533;-76
2022/06/20 12:28:22;;;;;;;12.00;3.78;;;25.30;99.90;;;;;;5072833;28;20205;-75
2022/06/20 12:30:55;;;;;;;11.98;3.92;;;25.40;99.90;;;;;;5072942;28;20196;-75
2022/06/20 12:33:23;;;;;;;6.03;3.72;;;25.70;99.90;;;;;;5072818;28;20201;-75
2022/06/20 12:35:53;;;;;;;6.72;3.90;;;25.50;99.90;;;;;;5072762;28;20242;-75
2022/06/20 12:38:26;;;;;;;8.75;3.85;;;25.60;99.90;;;;;;5072596;28;20212;-75
2022/06/20 12:40:57;;;;;;;9.82;3.88;;;25.70;99.90;;;;;;5072934;28;20251;-76
2022/06/20 12:43:28;;;;;;;9.07;3.60;;;26.00;99.90;;;;;;5072921;28;20246;-75
2022/06/20 12:46:10;;;;;;;8.55;4.25;;;25.70;99.90;;;;;;5072824;28;20201;-76
2022/06/20 12:48:58;;;;;;;8.93;3.95;;;25.60;99.90;;;;;;5072707;28;20213;-75
2022/06/20 12:51:35;;;;;;;6.88;3.60;;;25.30;99.90;;;;;;5072753;28;20246;-76
2022/06/20 12:54:17;;;;;;;8.95;3.75;;;25.50;99.90;;;;;;5072075;28;20254;-77
2022/06/20 12:56:59;;;;;;;9.10;3.42;;;25.80;99.90;;;;;;5072564;28;20247;-77
2022/06/20 13:00:03;;;;;;;8.93;3.13;;;27.70;99.90;;;;;;5072673;28;20205;-77
2022/06/20 13:02:49;;;;;;;7.57;3.70;;;27.30;99.40;;;;;;5072638;28;20201;-76
2022/06/20 13:05:30;;;;;;;7.03;3.67;;;27.50;98.90;;;;;;5072635;28;20254;-77
2022/06/20 13:08:16;;;;;;;8.38;3.60;;;27.40;99.30;;;;;;5072506;28;20525;-76
2022/06/20 13:10:57;;;;;;;7.57;3.20;;;27.70;98.70;;;;;;5072596;28;20196;-75
2022/06/20 13:13:40;;;;;;;5.82;3.28;;;27.80;97.90;;;;;;5072467;28;20193;-77
2022/06/20 13:16:17;;;;;;;9.63;3.58;;;27.90;96.50;;;;;;5072604;28;20591;-77
2022/06/20 13:19:03;;;;;;;7.32;3.63;;;27.20;97.80;;;;;;5072426;28;20201;-76
2022/06/20 13:21:38;;;;;;;8.30;3.55;;;27.30;98.40;;;;;;5072513;28;20262;-76